createdAt,value
2023-05-16T00:02:10.722Z,8.65
2023-05-16T00:04:37.539Z,7.03
2023-05-16T00:07:04.475Z,7.05
2023-05-16T00:09:31.040Z,9.27
2023-05-16T00:11:57.955Z,8.02
2023-05-16T00:14:26.295Z,6.55
2023-05-16T00:16:53.870Z,7.05
2023-05-16T00:19:20.605Z,6.10
2023-05-16T00:21:47.281Z,7.45
2023-05-16T00:24:13.895Z,8.43
2023-05-16T00:26:40.518Z,8.38
2023-05-16T00:29:07.121Z,7.45
2023-05-16T00:31:34.274Z,7.88
2023-05-16T00:34:01.004Z,8.18
2023-05-16T00:36:27.664Z,6.05
2023-05-16T00:38:54.255Z,10.35
2023-05-16T00:41:21.807Z,8.27
2023-05-16T00:43:48.572Z,7.47
2023-05-16T00:46:15.404Z,7.43
2023-05-16T00:48:42.333Z,9.25
2023-05-16T00:51:09.466Z,10.63
2023-05-16T00:53:37.176Z,7.30
2023-05-16T00:56:05.357Z,8.27
2023-05-16T00:58:33.412Z,6.70
2023-05-16T01:01:03.877Z,9.40
2023-05-16T01:05:59.853Z,7.80
2023-05-16T01:08:26.695Z,8.07
2023-05-16T01:10:53.237Z,10.13
2023-05-16T01:13:32.684Z,10.13
2023-05-16T01:16:14.150Z,9.90
2023-05-16T01:18:50.553Z,7.80
2023-05-16T01:21:39.090Z,8.82
2023-05-16T01:24:16.503Z,10.70
2023-05-16T01:26:44.086Z,9.82
2023-05-16T01:29:11.056Z,9.65
2023-05-16T01:31:37.684Z,9.68
2023-05-16T01:34:04.393Z,7.03
2023-05-16T01:36:46.239Z,9.98
2023-05-16T01:39:38.791Z,10.60
2023-05-16T01:42:07.954Z,9.82
2023-05-16T01:44:41.302Z,10.00
2023-05-16T01:47:16.758Z,9.98
2023-05-16T01:49:55.037Z,10.25
2023-05-16T01:53:00.792Z,9.32
2023-05-16T01:55:36.402Z,9.10
2023-05-16T01:58:04.909Z,10.65
2023-05-16T02:00:31.979Z,9.73
2023-05-16T02:03:00.741Z,8.93
2023-05-16T02:05:27.695Z,9.68
2023-05-16T02:07:54.848Z,8.63
2023-05-16T02:10:22.448Z,9.93
2023-05-16T02:12:50.623Z,8.00
2023-05-16T02:15:17.557Z,8.82
2023-05-16T02:17:44.518Z,9.07
2023-05-16T02:20:11.891Z,9.75
2023-05-16T02:22:39.356Z,8.15
2023-05-16T02:25:06.954Z,9.65
2023-05-16T02:27:33.607Z,9.38
2023-05-16T02:30:00.659Z,9.82
2023-05-16T02:32:27.369Z,10.50
2023-05-16T02:34:54.012Z,9.57
2023-05-16T02:37:20.726Z,10.48
2023-05-16T02:39:49.183Z,9.73
2023-05-16T02:42:16.058Z,10.18
2023-05-16T02:44:43.096Z,10.15
2023-05-16T02:47:09.751Z,11.65
2023-05-16T02:49:36.714Z,9.82
2023-05-16T02:52:03.519Z,10.30
2023-05-16T02:54:30.471Z,8.80
2023-05-16T02:56:57.551Z,10.45
2023-05-16T02:59:24.186Z,10.40
2023-05-16T03:01:51.469Z,10.13
2023-05-16T03:04:18.344Z,11.63
2023-05-16T03:06:45.073Z,10.73
2023-05-16T03:09:11.751Z,9.73
2023-05-16T03:11:38.445Z,11.38
2023-05-16T03:14:05.705Z,10.50
2023-05-16T03:16:32.973Z,12.15
2023-05-16T03:18:59.876Z,10.20
2023-05-16T03:21:26.608Z,12.30
2023-05-16T03:23:55.074Z,8.75
2023-05-16T03:26:22.811Z,10.32
2023-05-16T03:28:51.735Z,12.70
2023-05-16T03:31:18.549Z,11.63
2023-05-16T03:33:45.256Z,10.07
2023-05-16T03:36:11.900Z,10.57
2023-05-16T03:38:38.645Z,12.05
2023-05-16T03:41:05.423Z,11.48
2023-05-16T03:43:32.229Z,11.45
2023-05-16T03:46:01.009Z,13.18
2023-05-16T03:48:27.727Z,10.07
2023-05-16T03:50:54.322Z,12.38
2023-05-16T03:53:21.065Z,10.23
2023-05-16T03:55:48.882Z,11.23
2023-05-16T03:58:16.470Z,11.25
2023-05-16T04:00:43.135Z,12.15
2023-05-16T04:03:10.044Z,11.13
2023-05-16T04:05:36.712Z,10.10
2023-05-16T04:08:03.565Z,11.95
2023-05-16T04:10:30.479Z,8.85
2023-05-16T04:12:57.071Z,9.55
2023-05-16T04:15:24.056Z,10.52
2023-05-16T04:17:50.643Z,8.27
2023-05-16T04:20:17.348Z,13.73
2023-05-16T04:22:43.963Z,10.35
2023-05-16T04:25:11.302Z,11.68
2023-05-16T04:27:38.587Z,10.63
2023-05-16T04:30:05.724Z,10.88
2023-05-16T04:32:35.367Z,9.98
2023-05-16T04:35:02.632Z,10.63
2023-05-16T04:37:29.236Z,10.45
2023-05-16T04:39:55.874Z,10.68
2023-05-16T04:42:22.811Z,10.23
2023-05-16T04:44:50.201Z,12.35
2023-05-16T04:47:16.825Z,10.45
2023-05-16T04:49:43.419Z,11.73
2023-05-16T04:52:10.601Z,10.23
2023-05-16T04:54:39.122Z,10.75
2023-05-16T04:57:05.861Z,12.80
2023-05-16T04:59:32.544Z,9.95
2023-05-16T05:01:59.183Z,14.70
2023-05-16T05:04:26.080Z,13.18
2023-05-16T05:06:52.695Z,10.73
2023-05-16T05:09:19.343Z,12.02
2023-05-16T05:11:46.424Z,11.52
2023-05-16T05:14:13.058Z,14.77
2023-05-16T05:16:41.275Z,12.93
2023-05-16T05:19:09.009Z,11.55
2023-05-16T05:21:35.725Z,13.02
2023-05-16T05:24:02.374Z,12.88
2023-05-16T05:26:29.108Z,15.77
2023-05-16T05:29:04.652Z,12.00
2023-05-16T05:31:33.768Z,15.10
2023-05-16T05:34:00.981Z,13.88
2023-05-16T05:36:28.339Z,16.25
2023-05-16T05:38:54.943Z,14.38
2023-05-16T05:41:22.356Z,13.63
2023-05-16T05:43:49.495Z,14.32
2023-05-16T05:46:17.248Z,14.75
2023-05-16T05:48:44.765Z,16.80
2023-05-16T05:51:11.512Z,16.25
2023-05-16T05:53:38.299Z,15.05
2023-05-16T05:56:05.159Z,13.63
2023-05-16T05:58:31.987Z,16.52
2023-05-16T06:00:58.658Z,14.75
2023-05-16T06:03:25.614Z,17.42
2023-05-16T06:05:52.374Z,15.57
2023-05-16T06:08:19.200Z,15.32
2023-05-16T06:10:46.391Z,15.02
2023-05-16T06:13:13.970Z,15.02
2023-05-16T06:15:40.574Z,15.48
2023-05-16T06:18:07.384Z,13.07
2023-05-16T06:20:34.152Z,13.50
2023-05-16T06:23:01.498Z,15.75
2023-05-16T06:25:28.388Z,14.70
2023-05-16T06:27:55.212Z,15.85
2023-05-16T06:30:21.786Z,13.20
2023-05-16T06:32:48.642Z,15.35
2023-05-16T06:35:16.365Z,15.02
2023-05-16T06:37:43.199Z,15.43
2023-05-16T06:40:10.891Z,17.60
2023-05-16T06:42:40.704Z,17.15
2023-05-16T06:47:35.513Z,16.45
2023-05-16T06:50:02.488Z,17.95
2023-05-16T06:52:29.155Z,19.55
2023-05-16T06:54:56.977Z,18.95
2023-05-16T06:57:23.591Z,21.13
2023-05-16T06:59:50.234Z,21.90
2023-05-16T07:02:17.001Z,22.75
2023-05-16T07:04:43.883Z,23.13
2023-05-16T07:07:10.561Z,21.42
2023-05-16T07:09:37.389Z,23.35
2023-05-16T07:12:04.481Z,22.83
2023-05-16T07:14:31.146Z,20.65
2023-05-16T07:16:57.864Z,20.75
2023-05-16T07:19:24.600Z,20.20
2023-05-16T07:21:51.415Z,19.60
2023-05-16T07:24:18.078Z,18.83
2023-05-16T07:26:44.747Z,22.80
2023-05-16T07:29:11.952Z,20.30
2023-05-16T07:31:38.772Z,18.48
2023-05-16T07:34:05.612Z,18.70
2023-05-16T07:36:32.281Z,16.50
2023-05-16T07:38:59.189Z,12.95
2023-05-16T07:41:25.909Z,15.38
2023-05-16T07:43:52.575Z,13.82
2023-05-16T07:46:19.259Z,14.80
2023-05-16T07:48:46.569Z,15.23
2023-05-16T07:51:13.259Z,14.98
2023-05-16T07:53:40.001Z,10.45
2023-05-16T07:56:07.133Z,13.05
2023-05-16T07:58:33.992Z,14.05
2023-05-16T08:01:00.980Z,11.68
2023-05-16T08:03:27.818Z,11.75
2023-05-16T08:05:54.564Z,10.48
2023-05-16T08:08:22.401Z,13.10
2023-05-16T08:10:49.055Z,11.40
2023-05-16T08:13:15.892Z,9.70
2023-05-16T08:15:42.992Z,10.48
2023-05-16T08:18:16.538Z,10.10
2023-05-16T08:20:43.930Z,11.90
2023-05-16T08:23:10.623Z,12.50
2023-05-16T08:25:37.623Z,9.32
2023-05-16T08:28:04.436Z,10.45
2023-05-16T08:30:31.424Z,11.35
2023-05-16T08:32:58.124Z,9.60
2023-05-16T08:35:24.882Z,11.52
2023-05-16T08:37:51.716Z,8.55
2023-05-16T08:40:19.318Z,9.80
2023-05-16T08:42:46.885Z,10.95
2023-05-16T08:45:14.652Z,10.38
2023-05-16T08:47:42.917Z,11.25
2023-05-16T08:50:10.744Z,18.40
2023-05-16T08:52:40.396Z,8.27
2023-05-16T08:55:25.678Z,10.82
2023-05-16T08:57:54.361Z,10.68
2023-05-16T09:00:22.609Z,14.23
2023-05-16T09:02:50.104Z,9.50
2023-05-16T09:05:18.156Z,9.30
2023-05-16T09:07:46.110Z,11.43
2023-05-16T09:10:13.422Z,10.57
2023-05-16T09:12:41.735Z,9.60
2023-05-16T09:15:09.900Z,11.60
2023-05-16T09:17:40.338Z,9.27
2023-05-16T09:20:13.301Z,8.48
2023-05-16T09:22:40.862Z,12.25
2023-05-16T09:25:12.746Z,11.75
2023-05-16T09:27:48.605Z,10.32
2023-05-16T09:30:18.626Z,8.55
2023-05-16T09:32:45.917Z,9.80
2023-05-16T09:35:27.110Z,9.73
2023-05-16T09:37:57.861Z,10.25
2023-05-16T09:40:24.677Z,9.10
2023-05-16T09:43:09.495Z,8.40
2023-05-16T09:45:36.888Z,8.90
2023-05-16T09:48:15.939Z,10.18
2023-05-16T09:50:54.551Z,8.18
2023-05-16T09:53:30.969Z,8.18
2023-05-16T09:56:06.714Z,8.30
2023-05-16T09:58:35.618Z,9.25
2023-05-16T10:01:03.023Z,8.20
2023-05-16T10:03:29.975Z,9.18
2023-05-16T10:05:56.904Z,8.10
2023-05-16T10:08:26.052Z,8.23
2023-05-16T10:10:55.153Z,7.13
2023-05-16T10:13:23.909Z,6.78
2023-05-16T10:15:52.019Z,6.97
2023-05-16T10:18:19.731Z,10.45
2023-05-16T10:20:49.464Z,6.72
2023-05-16T10:23:19.388Z,9.35
2023-05-16T10:25:48.177Z,6.47
2023-05-16T10:28:16.423Z,8.45
2023-05-16T10:30:45.787Z,6.90
2023-05-16T10:33:15.043Z,6.25
2023-05-16T10:35:42.972Z,9.13
2023-05-16T10:38:12.451Z,6.97
2023-05-16T10:40:40.837Z,7.00
2023-05-16T10:43:08.960Z,6.78
2023-05-16T10:45:41.856Z,5.47
2023-05-16T10:48:12.474Z,7.15
2023-05-16T10:53:35.167Z,5.25
2023-05-16T10:56:01.952Z,6.65
2023-05-16T10:58:41.122Z,6.05
2023-05-16T11:01:29.367Z,5.28
2023-05-16T11:04:02.655Z,6.15
2023-05-16T11:06:42.755Z,6.82
2023-05-16T11:09:13.541Z,5.97
2023-05-16T11:11:52.838Z,6.28
2023-05-16T11:14:29.125Z,9.30
2023-05-16T11:17:21.367Z,9.00
2023-05-16T11:19:59.211Z,6.32
2023-05-16T11:22:28.701Z,6.03
2023-05-16T11:25:05.750Z,7.75
2023-05-16T11:27:41.675Z,5.30
2023-05-16T11:30:16.027Z,4.28
2023-05-16T11:32:45.024Z,4.63
2023-05-16T11:35:21.453Z,8.50
2023-05-16T11:37:48.432Z,6.10
2023-05-16T11:40:17.110Z,3.95
2023-05-16T11:42:50.334Z,4.68
2023-05-16T11:45:20.130Z,4.72
2023-05-16T11:47:48.579Z,5.20
2023-05-16T11:50:17.242Z,4.40
2023-05-16T11:52:46.656Z,5.13
2023-05-16T11:55:21.502Z,5.25
2023-05-16T11:58:00.124Z,4.47
2023-05-16T12:00:27.496Z,4.07
2023-05-16T12:02:55.738Z,4.20
2023-05-16T12:05:27.331Z,4.75
2023-05-16T12:07:54.727Z,4.72
2023-05-16T12:10:21.635Z,4.55
2023-05-16T12:12:51.702Z,4.93
2023-05-16T12:15:19.215Z,4.35
2023-05-16T12:17:46.818Z,4.60
2023-05-16T12:20:16.708Z,4.38
2023-05-16T12:22:45.329Z,4.65
2023-05-16T12:25:21.865Z,7.15
2023-05-16T12:27:48.583Z,5.75
2023-05-16T12:30:18.175Z,5.70
2023-05-16T12:32:45.431Z,3.80
2023-05-16T12:35:13.198Z,5.10
2023-05-16T12:37:39.966Z,4.60
2023-05-16T12:40:10.866Z,4.20
2023-05-16T12:42:38.171Z,5.75
2023-05-16T12:45:05.504Z,3.85
2023-05-16T12:47:36.962Z,4.15
2023-05-16T12:50:12.800Z,3.28
2023-05-16T12:52:52.119Z,6.70
2023-05-16T12:55:20.401Z,4.57
2023-05-16T12:57:48.372Z,4.57
2023-05-16T13:00:18.879Z,4.65
2023-05-16T13:02:46.554Z,3.33
2023-05-16T13:05:13.715Z,3.97
2023-05-16T13:07:40.941Z,4.03
2023-05-16T13:10:10.770Z,3.92
2023-05-16T13:12:41.873Z,3.38
2023-05-16T13:15:10.595Z,2.95
2023-05-16T13:17:39.245Z,3.08
2023-05-16T13:20:10.110Z,4.63
2023-05-16T13:22:37.453Z,4.55
2023-05-16T13:25:06.164Z,3.42
2023-05-16T13:27:33.434Z,4.85
2023-05-16T13:30:00.460Z,2.50
2023-05-16T13:32:27.379Z,2.30
2023-05-16T13:34:54.506Z,2.80
2023-05-16T13:37:21.425Z,3.78
2023-05-16T13:39:48.340Z,4.43
2023-05-16T13:42:15.018Z,3.65
2023-05-16T13:44:42.306Z,3.85
2023-05-16T13:47:09.108Z,2.60
2023-05-16T13:49:35.760Z,3.47
2023-05-16T13:52:02.432Z,2.90
2023-05-16T13:54:31.246Z,4.07
2023-05-16T13:56:58.110Z,3.03
2023-05-16T13:59:38.813Z,3.55
2023-05-16T14:02:12.110Z,4.00
2023-05-16T14:04:38.977Z,3.58
2023-05-16T14:07:05.624Z,3.90
2023-05-16T14:09:35.157Z,3.30
2023-05-16T14:12:03.348Z,3.40
2023-05-16T14:14:30.145Z,3.28
2023-05-16T14:16:56.814Z,3.15
2023-05-16T14:19:23.589Z,2.90
2023-05-16T14:21:51.921Z,3.70
2023-05-16T14:24:18.846Z,3.53
2023-05-16T14:26:45.514Z,3.60
2023-05-16T14:29:13.353Z,2.65
2023-05-16T14:31:41.036Z,2.28
2023-05-16T14:34:09.926Z,3.60
2023-05-16T14:36:38.684Z,4.13
2023-05-16T14:39:05.397Z,3.38
2023-05-16T14:41:32.099Z,5.28
2023-05-16T14:43:58.824Z,2.92
2023-05-16T14:46:25.630Z,6.47
2023-05-16T14:48:52.633Z,4.57
2023-05-16T14:51:19.367Z,4.10
2023-05-16T14:53:47.090Z,2.38
2023-05-16T14:56:14.118Z,3.85
2023-05-16T14:58:41.108Z,3.92
2023-05-16T15:01:07.986Z,3.55
2023-05-16T15:03:46.987Z,4.88
2023-05-16T15:06:21.409Z,6.18
2023-05-16T15:08:48.141Z,2.70
2023-05-16T15:11:14.983Z,6.00
2023-05-16T15:13:41.694Z,5.60
2023-05-16T15:16:08.445Z,2.97
2023-05-16T15:18:35.344Z,2.88
2023-05-16T15:21:02.188Z,2.90
2023-05-16T15:23:29.681Z,3.88
2023-05-16T15:25:56.714Z,6.28
2023-05-16T15:28:23.344Z,5.35
2023-05-16T15:30:51.938Z,3.45
2023-05-16T15:33:18.728Z,5.13
2023-05-16T15:35:45.558Z,7.00
2023-05-16T15:38:12.269Z,5.15
2023-05-16T15:40:39.181Z,4.13
2023-05-16T15:43:05.869Z,6.25
2023-05-16T15:45:32.937Z,6.53
2023-05-16T15:47:59.756Z,2.85
2023-05-16T15:50:27.397Z,3.95
2023-05-16T15:52:54.160Z,4.10
2023-05-16T15:55:22.004Z,5.03
2023-05-16T15:57:48.760Z,5.10
2023-05-16T16:00:16.302Z,3.85
2023-05-16T16:02:45.097Z,3.35
2023-05-16T16:05:11.966Z,7.50
2023-05-16T16:07:38.602Z,6.38
2023-05-16T16:10:06.299Z,2.85
2023-05-16T16:12:33.219Z,6.18
2023-05-16T16:15:00.006Z,3.78
2023-05-16T16:17:26.774Z,3.72
2023-05-16T16:19:53.630Z,2.53
2023-05-16T16:22:22.279Z,3.67
2023-05-16T16:24:49.361Z,5.25
2023-05-16T16:27:16.559Z,3.05
2023-05-16T16:29:43.196Z,8.00
2023-05-16T16:32:10.945Z,3.20
2023-05-16T16:34:37.567Z,3.65
2023-05-16T16:37:04.354Z,3.90
2023-05-16T16:39:33.314Z,5.55
2023-05-16T16:42:00.126Z,3.05
2023-05-16T16:44:26.997Z,4.10
2023-05-16T16:46:55.009Z,3.35
2023-05-16T16:49:21.642Z,3.13
2023-05-16T16:51:49.982Z,3.45
2023-05-16T16:54:18.002Z,6.15
2023-05-16T16:56:46.105Z,6.47
2023-05-16T16:59:12.888Z,2.65
2023-05-16T17:01:39.595Z,3.38
2023-05-16T17:04:06.465Z,6.47
2023-05-16T17:06:33.354Z,2.25
2023-05-16T17:09:05.052Z,3.95
2023-05-16T17:11:35.906Z,3.22
2023-05-16T17:14:03.895Z,4.32
2023-05-16T17:16:31.366Z,3.55
2023-05-16T17:18:59.546Z,4.28
2023-05-16T17:21:26.793Z,3.03
2023-05-16T17:23:54.021Z,3.67
2023-05-16T17:26:20.654Z,4.57
2023-05-16T17:28:49.287Z,4.22
2023-05-16T17:31:16.205Z,5.65
2023-05-16T17:33:42.893Z,6.65
2023-05-16T17:36:09.556Z,3.65
2023-05-16T17:38:36.481Z,6.35
2023-05-16T17:41:03.166Z,4.68
2023-05-16T17:43:30.954Z,6.00
2023-05-16T17:45:57.727Z,4.05
2023-05-16T17:48:24.537Z,4.60
2023-05-16T17:50:51.725Z,4.70
2023-05-16T17:53:18.433Z,5.32
2023-05-16T17:55:45.319Z,3.80
2023-05-16T17:58:13.571Z,5.18
2023-05-16T18:00:40.331Z,3.47
2023-05-16T18:03:07.160Z,3.10
2023-05-16T18:05:34.293Z,1.60
2023-05-16T18:08:01.049Z,2.60
2023-05-16T18:10:33.824Z,5.22
2023-05-16T18:13:03.691Z,3.53
2023-05-16T18:15:30.425Z,5.30
2023-05-16T18:17:57.207Z,3.03
2023-05-16T18:20:23.990Z,5.13
2023-05-16T18:22:51.975Z,7.15
2023-05-16T18:25:19.027Z,5.45
2023-05-16T18:27:46.066Z,3.92
2023-05-16T18:30:13.404Z,3.80
2023-05-16T18:32:40.521Z,10.68
2023-05-16T18:35:07.636Z,4.25
2023-05-16T18:37:34.484Z,2.30
2023-05-16T18:40:01.414Z,5.18
2023-05-16T18:42:28.405Z,4.45
2023-05-16T18:44:56.995Z,3.90
2023-05-16T18:47:24.618Z,2.50
2023-05-16T18:49:52.570Z,3.08
2023-05-16T18:52:19.236Z,5.47
2023-05-16T18:54:45.986Z,5.72
2023-05-16T18:57:13.269Z,8.43
2023-05-16T18:59:40.095Z,2.78
2023-05-16T19:02:06.864Z,5.50
2023-05-16T19:04:33.697Z,4.53
2023-05-16T19:07:03.084Z,3.90
2023-05-16T19:09:32.407Z,2.65
2023-05-16T19:11:59.093Z,3.78
2023-05-16T19:14:27.261Z,5.88
2023-05-16T19:16:53.890Z,5.32
2023-05-16T19:19:21.067Z,7.20
2023-05-16T19:21:47.982Z,7.05
2023-05-16T19:24:15.033Z,8.77
2023-05-16T19:26:41.870Z,6.90
2023-05-16T19:29:10.301Z,8.80
2023-05-16T19:31:37.221Z,7.25
2023-05-16T19:34:05.746Z,7.53
2023-05-16T19:36:33.736Z,7.03
2023-05-16T19:39:00.584Z,6.85
2023-05-16T19:41:27.618Z,5.68
2023-05-16T19:43:54.329Z,7.03
2023-05-16T19:46:21.104Z,7.72
2023-05-16T19:48:47.987Z,7.80
2023-05-16T19:51:14.711Z,6.30
2023-05-16T19:53:42.120Z,6.63
2023-05-16T19:56:09.698Z,5.85
2023-05-16T19:58:36.404Z,5.97
2023-05-16T20:01:03.146Z,4.70
2023-05-16T20:03:30.010Z,4.22
2023-05-16T20:05:58.045Z,7.70
2023-05-16T20:08:24.830Z,6.57
2023-05-16T20:10:51.637Z,6.40
2023-05-16T20:13:20.401Z,5.57
2023-05-16T20:15:47.802Z,6.20
2023-05-16T20:18:14.876Z,6.95
2023-05-16T20:20:41.677Z,6.78
2023-05-16T20:23:08.358Z,5.65
2023-05-16T20:25:35.493Z,7.45
2023-05-16T20:28:02.253Z,3.40
2023-05-16T20:30:30.120Z,5.13
2023-05-16T20:32:57.524Z,2.67
2023-05-16T20:35:24.473Z,2.47
2023-05-16T20:37:51.168Z,2.50
2023-05-16T20:40:20.567Z,5.82
2023-05-16T20:42:47.213Z,4.93
2023-05-16T20:45:14.377Z,2.97
2023-05-16T20:47:41.131Z,2.25
2023-05-16T20:50:08.514Z,3.08
2023-05-16T20:52:35.167Z,2.58
2023-05-16T20:55:01.828Z,1.65
2023-05-16T20:57:28.475Z,2.58
2023-05-16T20:59:55.156Z,2.67
2023-05-16T21:02:21.785Z,5.00
2023-05-16T21:04:48.560Z,3.40
2023-05-16T21:07:15.322Z,3.22
2023-05-16T21:09:42.006Z,3.67
2023-05-16T21:12:08.997Z,3.65
2023-05-16T21:14:36.491Z,1.02
2023-05-16T21:17:03.247Z,3.33
2023-05-16T21:19:34.040Z,3.70
2023-05-16T21:22:04.452Z,5.85
2023-05-16T21:24:35.119Z,2.88
2023-05-16T21:29:29.242Z,2.30
2023-05-16T21:31:55.906Z,2.25
2023-05-16T21:34:22.531Z,2.55
2023-05-16T21:36:49.208Z,4.40
2023-05-16T21:39:16.225Z,4.10
2023-05-16T21:41:42.913Z,2.70
2023-05-16T21:44:09.573Z,1.33
2023-05-16T21:46:36.381Z,2.97
2023-05-16T21:49:03.028Z,1.58
2023-05-16T21:51:29.805Z,4.00
2023-05-16T21:53:56.578Z,1.70
2023-05-16T21:56:23.332Z,3.78
2023-05-16T21:58:50.087Z,2.65
2023-05-16T22:01:16.908Z,1.08
2023-05-16T22:03:43.613Z,4.57
2023-05-16T22:06:10.333Z,2.97
2023-05-16T22:08:37.039Z,1.63
2023-05-16T22:11:03.752Z,2.80
2023-05-16T22:13:30.411Z,2.92
2023-05-16T22:16:04.508Z,2.75
2023-05-16T22:18:33.154Z,3.58
2023-05-16T22:21:00.669Z,1.58
2023-05-16T22:23:27.757Z,3.58
2023-05-16T22:25:55.438Z,1.05
2023-05-16T22:28:22.164Z,2.15
2023-05-16T22:30:48.759Z,3.33
2023-05-16T22:33:15.539Z,1.80
2023-05-16T22:35:42.241Z,3.80
2023-05-16T22:38:08.894Z,3.65
2023-05-16T22:40:35.524Z,1.38
2023-05-16T22:43:02.185Z,3.15
2023-05-16T22:45:28.883Z,4.00
2023-05-16T22:47:55.869Z,2.05
2023-05-16T22:50:22.546Z,1.83
2023-05-16T22:52:49.388Z,1.60
2023-05-16T22:55:16.124Z,2.70
2023-05-16T22:57:44.074Z,3.17
2023-05-16T23:00:11.145Z,3.67
2023-05-16T23:02:38.245Z,2.97
2023-05-16T23:05:05.423Z,4.43
2023-05-16T23:07:32.182Z,1.40
2023-05-16T23:09:58.894Z,1.73
2023-05-16T23:12:25.971Z,1.00
2023-05-16T23:14:52.721Z,1.40
2023-05-16T23:17:19.353Z,1.63
2023-05-16T23:19:46.200Z,2.67
2023-05-16T23:22:12.908Z,2.28
2023-05-16T23:24:39.562Z,2.72
2023-05-16T23:27:06.289Z,2.55
2023-05-16T23:29:32.918Z,1.02
2023-05-16T23:31:59.700Z,4.03
2023-05-16T23:34:26.410Z,2.50
2023-05-16T23:36:53.010Z,1.33
2023-05-16T23:39:21.468Z,1.73
2023-05-16T23:41:48.139Z,1.30
2023-05-16T23:44:14.786Z,3.63
2023-05-16T23:46:41.441Z,1.48
2023-05-16T23:49:08.074Z,1.20
2023-05-16T23:51:52.279Z,4.45
2023-05-16T23:54:21.735Z,4.47
2023-05-16T23:56:48.547Z,2.28
2023-05-16T23:59:16.383Z,1.52
